Time;durP1;ratioP1;P1;durP2;ratioP2;P2;SDS_P1;SDS_P2;PMS_P1;PMS_P2;Temp;Humidity;BMP_temperature;BMP_pressure;BME280_temperature;BME280_humidity;BME280_pressure;Samples;Min_cycle;Max_cycle;Signal;HPM_P1;HPM_P2
2023/08/03 00:05:09;;;;;;;9.52;5.97;;;;;;;25.03;85.00;100610.22;20892303;28;20041;-70
2023/08/03 00:15:33;;;;;;;7.82;5.72;;;;;;;24.93;84.17;100611.59;20881598;28;20096;-70
2023/08/03 00:25:56;;;;;;;6.78;5.22;;;;;;;24.86;83.85;100604.69;20891169;28;20056;-70
2023/08/03 00:36:20;;;;;;;9.18;5.55;;;;;;;24.61;88.55;100594.97;20840164;28;20049;-70
2023/08/03 00:46:43;;;;;;;7.30;5.75;;;;;;;24.64;87.95;100593.97;20854273;28;20049;-70
2023/08/03 00:57:07;;;;;;;7.10;5.57;;;;;;;24.55;89.17;100589.88;20854359;28;20078;-70
2023/08/03 01:07:30;;;;;;;7.93;6.10;;;;;;;24.37;91.99;100574.50;20855749;28;20131;-70
2023/08/03 01:17:55;;;;;;;8.93;5.10;;;;;;;24.39;91.57;100577.13;20842704;28;20057;-70
2023/08/03 01:28:19;;;;;;;9.32;5.60;;;;;;;24.38;92.88;100578.06;20843231;28;20546;-70
2023/08/03 01:38:41;;;;;;;7.93;5.85;;;;;;;24.15;94.68;100577.25;20834141;28;20052;-70
2023/08/03 01:49:06;;;;;;;8.07;5.95;;;;;;;24.03;95.23;100580.44;20838230;28;20732;-70
2023/08/03 01:59:29;;;;;;;8.45;5.97;;;;;;;24.15;92.71;100593.44;20825400;28;20072;-70
2023/08/03 02:09:53;;;;;;;8.05;5.60;;;;;;;24.06;93.01;100604.59;20807768;28;20061;-70
2023/08/03 02:20:16;;;;;;;7.50;5.45;;;;;;;23.87;95.05;100614.41;20807790;28;20052;-69
2023/08/03 02:30:41;;;;;;;8.77;5.95;;;;;;;23.76;96.43;100609.44;20807804;28;20098;-70
2023/08/03 02:41:05;;;;;;;7.47;5.72;;;;;;;23.74;94.94;100607.78;20806513;28;20095;-70
2023/08/03 02:51:31;;;;;;;7.78;5.53;;;;;;;23.65;96.49;100606.31;20803926;28;20068;-69
2023/08/03 03:01:55;;;;;;;7.40;5.60;;;;;;;23.60;96.15;100610.16;20820240;28;20044;-70
2023/08/03 03:12:25;;;;;;;7.60;5.47;;;;;;;23.56;95.82;100620.19;20809287;28;20056;-70
2023/08/03 03:22:48;;;;;;;8.07;5.75;;;;;;;23.51;97.40;100621.28;20820328;28;20147;-70
2023/08/03 03:33:13;;;;;;;8.30;4.90;;;;;;;23.48;97.98;100621.41;20808406;28;20057;-70
2023/08/03 03:43:41;;;;;;;6.28;4.85;;;;;;;23.62;98.18;100637.94;20837754;28;20041;-70
2023/08/03 03:54:06;;;;;;;7.68;4.43;;;;;;;23.86;99.81;100636.91;20890967;28;20136;-70
2023/08/03 04:04:29;;;;;;;8.10;4.93;;;;;;;24.36;100.00;100645.59;20886512;28;20393;-70
2023/08/03 04:14:53;;;;;;;6.43;4.50;;;;;;;24.83;100.00;100642.63;20884328;28;20168;-71
2023/08/03 04:25:16;;;;;;;7.72;4.35;;;;;;;25.36;100.00;100651.00;20880679;28;20144;-70
2023/08/03 04:35:47;;;;;;;9.00;5.88;;;;;;;25.84;97.70;100661.31;20890594;28;20048;-70
2023/08/03 04:46:16;;;;;;;7.70;5.75;;;;;;;26.54;95.25;100663.19;20844508;28;20199;-71
2023/08/03 04:56:42;;;;;;;15.10;13.50;;;;;;;27.21;88.88;100670.47;20864721;28;20053;-70
2023/08/03 05:07:05;;;;;;;8.75;5.32;;;;;;;28.01;84.31;100673.19;20868263;28;20056;-71
2023/08/03 05:17:29;;;;;;;12.88;8.27;;;;;;;28.73;75.98;100676.13;20881512;28;20521;-71
2023/08/03 05:27:52;;;;;;;10.93;8.00;;;;;;;29.58;69.51;100672.63;20893598;28;20114;-71
2023/08/03 05:38:16;;;;;;;7.97;3.22;;;;;;;30.66;55.22;100662.66;20885287;28;20076;-71
2023/08/03 05:48:38;;;;;;;3.60;2.45;;;;;;;31.91;52.60;100668.16;20893582;28;20052;-70
2023/08/03 05:59:03;;;;;;;5.20;2.50;;;;;;;33.23;47.34;100660.66;20915883;28;20134;-71
2023/08/03 06:09:26;;;;;;;7.67;2.80;;;;;;;34.01;44.52;100663.34;20947634;28;20048;-71
2023/08/03 06:19:50;;;;;;;11.48;3.30;;;;;;;34.70;43.13;100661.97;20902811;28;20045;-71
2023/08/03 06:30:14;;;;;;;6.47;2.58;;;;;;;35.18;40.83;100647.72;20886168;28;20053;-70
2023/08/03 06:40:39;;;;;;;4.22;2.45;;;;;;;35.51;39.79;100641.94;20892124;28;20048;-70
2023/08/03 06:51:02;;;;;;;9.20;2.90;;;;;;;35.81;38.97;100646.56;20893278;28;20045;-71
2023/08/03 07:01:27;;;;;;;5.32;2.63;;;;;;;35.97;37.95;100636.91;20902509;28;20497;-71
2023/08/03 07:11:49;;;;;;;5.22;2.47;;;;;;;36.23;36.80;100639.00;20886502;28;20076;-71
2023/08/03 07:22:13;;;;;;;4.57;2.30;;;;;;;36.50;34.28;100653.88;20905061;28;20044;-70
2023/08/03 07:32:36;;;;;;;4.03;2.15;;;;;;;36.49;33.40;100658.56;20897687;28;20064;-71
2023/08/03 07:43:00;;;;;;;5.15;2.35;;;;;;;36.42;32.03;100657.38;20911855;28;20053;-71
2023/08/03 07:53:22;;;;;;;3.33;1.83;;;;;;;36.81;31.19;100674.78;20906619;28;20056;-70
2023/08/03 08:03:49;;;;;;;3.72;2.15;;;;;;;37.17;30.38;100670.38;20894995;28;20053;-70
2023/08/03 08:14:11;;;;;;;2.47;1.48;;;;;;;37.31;30.25;100675.41;20922640;28;20052;-71
2023/08/03 08:24:18;;;;;;;5.95;2.00;;;;;;;37.31;29.31;100677.28;20895573;28;20045;-70
2023/08/03 08:34:20;;;;;;;5.47;2.50;;;;;;;37.56;29.72;100682.09;20889964;28;20045;-71
2023/08/03 08:44:44;;;;;;;6.18;2.03;;;;;;;37.96;28.69;100661.59;20845421;28;20134;-71
2023/08/03 08:55:13;;;;;;;4.05;2.42;;;;;;;38.08;28.46;100669.53;20887570;28;20073;-70
2023/08/03 09:05:39;;;;;;;2.83;1.80;;;;;;;38.28;27.47;100676.66;20921934;28;20158;-70
2023/08/03 09:16:02;;;;;;;3.65;1.83;;;;;;;38.46;26.46;100676.69;20908203;28;20148;-70
2023/08/03 09:26:27;;;;;;;2.50;1.95;;;;;;;38.55;26.87;100680.38;20862440;28;20044;-71
2023/08/03 09:36:48;;;;;;;5.22;2.20;;;;;;;38.56;27.04;100680.25;20893877;28;20056;-70
2023/08/03 09:47:13;;;;;;;3.65;1.67;;;;;;;38.63;27.44;100683.22;20901764;28;20110;-70
2023/08/03 09:57:40;;;;;;;4.05;2.35;;;;;;;38.42;27.86;100682.66;20893302;28;20464;-70
2023/08/03 10:08:07;;;;;;;3.72;1.65;;;;;;;38.39;28.12;100686.59;20919750;28;20419;-71
2023/08/03 10:18:32;;;;;;;3.33;1.85;;;;;;;38.31;28.89;100685.66;20904807;28;20052;-72
2023/08/03 10:28:56;;;;;;;3.15;1.77;;;;;;;38.26;28.10;100677.84;20917700;28;20049;-72
2023/08/03 10:39:48;;;;;;;3.70;1.57;;;;;;;38.11;27.83;100680.28;20878067;28;20045;-71
2023/08/03 10:50:13;;;;;;;3.67;1.92;;;;;;;38.00;29.67;100679.59;20884288;28;20294;-72
2023/08/03 11:00:36;;;;;;;3.25;1.88;;;;;;;37.79;30.35;100677.97;20873331;28;20131;-71
2023/08/03 11:11:00;;;;;;;4.55;1.90;;;;;;;37.86;29.93;100672.72;20906604;28;20049;-71
2023/08/03 11:21:23;;;;;;;2.63;1.90;;;;;;;38.00;30.25;100676.84;20877536;28;20053;-70
2023/08/03 11:31:48;;;;;;;3.47;2.15;;;;;;;37.98;30.89;100668.72;20927153;28;20294;-71
2023/08/03 11:42:01;;;;;;;3.83;1.73;;;;;;;38.13;31.07;100672.72;20867668;28;20077;-71
2023/08/03 11:52:25;;;;;;;4.28;1.85;;;;;;;38.01;30.91;100668.38;20896154;28;20053;-71
2023/08/03 12:02:47;;;;;;;;;;;;;;;37.79;32.00;100675.22;20888585;28;20052;-70
2023/08/03 12:13:11;;;;;;;2.42;1.70;;;;;;;37.54;34.15;100678.66;20898642;28;19935;-71
2023/08/03 12:23:34;;;;;;;3.10;2.15;;;;;;;37.42;34.26;100672.44;20882570;28;20061;-71
2023/08/03 12:33:58;;;;;;;4.63;2.30;;;;;;;37.57;33.88;100674.72;20889057;28;20049;-70
2023/08/03 12:44:20;;;;;;;3.80;2.37;;;;;;;37.45;36.71;100676.78;20856619;28;20057;-70
2023/08/03 12:54:27;;;;;;;3.75;2.30;;;;;;;37.53;37.36;100676.03;20882720;28;20049;-71
2023/08/03 13:04:52;;;;;;;3.67;2.50;;;;;;;37.42;39.27;100668.81;20925974;28;20053;-70
2023/08/03 13:15:15;;;;;;;4.75;2.45;;;;;;;37.19;40.53;100670.22;20884666;28;20079;-70
2023/08/03 13:25:38;;;;;;;4.07;2.33;;;;;;;36.81;43.42;100658.25;20879256;28;20045;-70
2023/08/03 13:36:03;;;;;;;5.53;2.90;;;;;;;36.44;47.06;100655.34;20882080;28;20118;-69
2023/08/03 13:46:25;;;;;;;;;;;;;;;36.04;49.44;100651.84;20938337;28;20048;-70
2023/08/03 13:56:51;;;;;;;4.82;2.17;;;;;;;35.90;50.99;100662.22;20902897;28;19920;-70
2023/08/03 14:07:13;;;;;;;;;;;;;;;36.14;50.61;100655.44;20916872;28;20842;-70
2023/08/03 14:17:37;;;;;;;4.50;2.67;;;;;;;36.42;48.54;100653.78;20899781;28;19925;-70
2023/08/03 14:28:00;;;;;;;4.82;2.30;;;;;;;36.37;43.99;100650.56;20897294;28;20049;-70
2023/08/03 14:38:25;;;;;;;4.28;2.05;;;;;;;36.44;41.82;100644.34;20911822;28;20128;-70
2023/08/03 14:48:33;;;;;;;5.07;2.20;;;;;;;36.28;40.15;100652.31;20892426;28;20063;-70
2023/08/03 14:58:58;;;;;;;4.43;1.98;;;;;;;36.01;38.04;100641.97;20881832;28;20057;-70
2023/08/03 15:09:21;;;;;;;4.13;1.95;;;;;;;35.54;39.97;100644.44;20875208;28;20061;-71
2023/08/03 15:19:49;;;;;;;7.15;1.90;;;;;;;34.48;44.43;100645.63;20893382;28;20405;-71
2023/08/03 15:30:12;;;;;;;4.40;2.10;;;;;;;33.60;47.68;100636.63;20883339;28;20060;-71
2023/08/03 15:40:38;;;;;;;6.90;2.50;;;;;;;33.19;53.95;100640.00;20855394;28;20061;-71
2023/08/03 15:51:01;;;;;;;5.50;2.30;;;;;;;32.86;59.24;100640.81;20882677;28;20064;-71
2023/08/03 16:01:27;;;;;;;8.38;2.38;;;;;;;32.54;64.81;100637.84;20868266;28;20048;-71
2023/08/03 16:11:50;;;;;;;7.13;2.55;;;;;;;32.30;67.89;100636.97;20885792;28;20599;-71
2023/08/03 16:22:14;;;;;;;6.50;2.78;;;;;;;32.01;88.75;100639.19;20863370;28;20053;-72
2023/08/03 16:32:36;;;;;;;11.80;3.03;;;;;;;31.80;92.86;100641.69;20870032;28;20571;-72
2023/08/03 16:42:53;;;;;;;11.07;3.25;;;;;;;31.53;93.16;100639.09;20874725;28;20504;-71
2023/08/03 16:52:55;;;;;;;8.38;2.50;;;;;;;31.25;95.62;100644.81;20885087;28;20045;-71
2023/08/03 17:03:24;;;;;;;8.60;2.92;;;;;;;31.07;97.45;100657.94;20864461;28;20052;-71
2023/08/03 17:13:46;;;;;;;12.32;3.20;;;;;;;30.83;100.00;100657.78;20899660;28;20539;-72
2023/08/03 17:24:11;;;;;;;8.40;2.92;;;;;;;30.57;100.00;100666.03;20880551;28;20048;-71
2023/08/03 17:34:33;;;;;;;12.23;3.58;;;;;;;30.43;100.00;100666.94;20886160;28;20089;-71
2023/08/03 17:44:59;;;;;;;9.93;3.38;;;;;;;30.20;100.00;100660.31;20916227;28;20044;-71
2023/08/03 17:55:21;;;;;;;9.57;3.50;;;;;;;30.03;100.00;100676.94;20898371;28;20069;-72
2023/08/03 18:05:45;;;;;;;8.82;3.17;;;;;;;29.89;100.00;100682.38;20902143;28;20056;-71
2023/08/03 18:16:09;;;;;;;8.27;3.17;;;;;;;29.70;100.00;100688.16;20898230;28;20072;-71
2023/08/03 18:26:32;;;;;;;14.20;3.38;;;;;;;29.46;100.00;100704.25;20891392;28;20543;-71
2023/08/03 18:36:55;;;;;;;8.98;3.67;;;;;;;29.21;100.00;100704.84;20870698;28;20837;-72
2023/08/03 18:47:20;;;;;;;10.32;3.60;;;;;;;28.99;100.00;100717.19;20888585;28;20041;-71
2023/08/03 18:57:42;;;;;;;11.77;3.90;;;;;;;28.73;100.00;100708.75;20871527;28;20068;-71
2023/08/03 19:08:07;;;;;;;7.78;3.83;;;;;;;28.56;100.00;100722.44;20869670;28;20044;-71
2023/08/03 19:18:30;;;;;;;11.27;3.47;;;;;;;28.31;100.00;100716.72;20900498;28;20052;-71
2023/08/03 19:28:55;;;;;;;9.52;4.15;;;;;;;28.17;100.00;100709.38;20872798;28;20060;-71
2023/08/03 19:39:17;;;;;;;9.43;3.85;;;;;;;27.96;100.00;100714.16;20895213;28;20557;-71
2023/08/03 19:49:44;;;;;;;8.10;4.07;;;;;;;27.83;100.00;100709.56;20907836;28;20041;-71
2023/08/03 20:00:08;;;;;;;8.55;3.60;;;;;;;27.59;100.00;100706.34;20874896;28;20049;-71
2023/08/03 20:10:36;;;;;;;9.73;4.43;;;;;;;27.50;100.00;100710.44;20880741;28;20565;-71
2023/08/03 20:20:59;;;;;;;7.70;3.42;;;;;;;27.02;100.00;100702.25;20874675;28;20040;-70
2023/08/03 20:31:23;;;;;;;15.13;4.10;;;;;;;26.92;100.00;100710.84;20887601;28;20144;-70
2023/08/03 20:41:46;;;;;;;8.85;3.70;;;;;;;26.95;100.00;100705.28;20891537;28;20049;-71
2023/08/03 20:51:50;;;;;;;10.23;3.42;;;;;;;26.77;100.00;100695.41;20901758;28;20056;-71
2023/08/03 21:02:13;;;;;;;6.68;3.33;;;;;;;26.52;100.00;100689.47;20898586;28;20683;-70
2023/08/03 21:12:37;;;;;;;6.13;3.15;;;;;;;26.47;100.00;100683.44;20898213;28;20060;-69
2023/08/03 21:22:47;;;;;;;6.97;3.75;;;;;;;26.35;100.00;100686.75;20905598;28;20083;-70
2023/08/03 21:33:11;;;;;;;6.28;3.60;;;;;;;26.19;100.00;100682.09;20885852;28;20044;-70
2023/08/03 21:43:33;;;;;;;6.72;3.00;;;;;;;26.04;100.00;100672.03;20897128;28;20056;-69
2023/08/03 21:54:00;;;;;;;5.45;3.00;;;;;;;25.91;98.80;100664.59;20896240;28;20053;-70
2023/08/03 22:04:23;;;;;;;5.43;2.90;;;;;;;25.80;92.48;100673.22;20910565;28;20489;-70
2023/08/03 22:14:48;;;;;;;6.72;3.10;;;;;;;25.66;87.20;100673.06;20905415;28;20067;-70
2023/08/03 22:25:11;;;;;;;4.22;3.00;;;;;;;25.50;81.12;100670.16;20904596;28;20168;-70
2023/08/03 22:35:36;;;;;;;6.40;2.60;;;;;;;25.50;76.86;100670.16;20870866;28;20060;-70
2023/08/03 22:45:59;;;;;;;5.28;2.38;;;;;;;25.37;74.55;100659.03;20905119;28;20063;-70
2023/08/03 22:56:24;;;;;;;7.47;2.50;;;;;;;25.33;70.93;100656.56;20874550;28;20045;-69
2023/08/03 23:06:49;;;;;;;4.93;2.72;;;;;;;25.11;69.26;100651.28;20892389;28;20444;-70
2023/08/03 23:17:13;;;;;;;4.45;2.83;;;;;;;24.81;67.77;100639.16;20893713;28;20091;-69
2023/08/03 23:27:36;;;;;;;6.75;2.80;;;;;;;24.78;67.34;100633.88;20881339;28;20044;-70
2023/08/03 23:38:00;;;;;;;7.32;2.50;;;;;;;24.77;66.53;100629.41;20828207;28;20052;-70
2023/08/03 23:48:23;;;;;;;7.05;2.80;;;;;;;24.56;67.20;100615.91;20891286;28;20045;-70
2023/08/03 23:58:31;;;;;;;8.55;2.60;;;;;;;24.47;67.66;100610.94;20889036;28;20053;-70
